This is the latest recevied weather packets stored in our database for station/object WA7CUG. If no packets are shown the sender has not sent any weather packets the latest 10 day(s).
| Time | Temp. | Humidity | Pressure | Rain* | Wind** | Luminosity | Snow |
|---|---|---|---|---|---|---|---|
| 1778251251 | 14.44° C | 59% | 1013.7 hPa | 0 mm | - | 103 W/m² | - |
| 1778250949 | 14.44° C | 57% | 1013.9 hPa | 0 mm | - | 101 W/m² | - |
| 1778250645 | 14.44° C | 58% | 1013.8 hPa | 0 mm | - | 108 W/m² | - |
| 1778250342 | 13.89° C | 60% | 1013.9 hPa | 0 mm | - | 111 W/m² | - |
| 1778250038 | 13.89° C | 65% | 1014 hPa | 0 mm | - | 118 W/m² | - |
| 1778249735 | 13.89° C | 63% | 1013.6 hPa | 0 mm | - | 115 W/m² | - |
| 1778249433 | 13.89° C | 60% | 1013.9 hPa | 0 mm | - | 108 W/m² | - |
| 1778249130 | 13.33° C | 64% | 1013.7 hPa | 0 mm | - | 100 W/m² | - |
| 1778248826 | 13.33° C | 64% | 1013.8 hPa | 0 mm | - | 93 W/m² | - |
| 1778248522 | 13.89° C | 62% | 1013.7 hPa | 0 mm | - | 86 W/m² | - |
| 1778248219 | 13.89° C | 61% | 1013.8 hPa | 0 mm | - | 83 W/m² | - |
| 1778247915 | 13.33° C | 62% | 1013.6 hPa | 0 mm | - | 77 W/m² | - |
| 1778247612 | 13.33° C | 62% | 1013.7 hPa | 0 mm | - | 62 W/m² | - |
| 1778247309 | 13.33° C | 63% | 1013.7 hPa | 0 mm | - | 54 W/m² | - |
| 1778247006 | 13.33° C | 63% | 1013.5 hPa | 0 mm | - | 50 W/m² | - |
| 1778246704 | 13.33° C | 63% | 1013.4 hPa | 0 mm | - | 52 W/m² | - |
| 1778246400 | 12.78° C | 64% | 1013.6 hPa | 0 mm | - | 49 W/m² | - |
| 1778246096 | 12.22° C | 67% | 1013.6 hPa | 0 mm | - | 41 W/m² | - |
| 1778245793 | 11.11° C | 70% | 1013.6 hPa | 0 mm | - | 33 W/m² | - |
| 1778245490 | 11.11° C | 71% | 1013.5 hPa | 0 mm | - | 28 W/m² | - |
| 1778245185 | 10.56° C | 72% | 1013.5 hPa | 0 mm | - | 21 W/m² | - |
| 1778244882 | 10.56° C | 72% | 1013.5 hPa | 0 mm | - | 17 W/m² | - |
| 1778244580 | 10.56° C | 73% | 1013.4 hPa | 0 mm | - | 13 W/m² | - |
| 1778244277 | 10.56° C | 72% | 1013.3 hPa | 0 mm | - | 10 W/m² | - |
| 1778243975 | 11.11° C | 71% | 1013.4 hPa | 0 mm | - | 7 W/m² | - |
* Rain latest hour (hover to see other rain measurements)
** Current wind speed in m/s (hover to see current wind gust speed)